Clive, Iowa
Current Conditions -  °F | °C
As of 1:54 PM on Friday 24 Oct 2014 (Local Time) from KDSM Reporting Station
Haze Haze  
Wind Chill: 64°   Ceiling: 700
Heat Index: 64°   Visibility: 3mi
Dew Point: 60°   Wind: 9mph
Humidity: 87%   Direction: 200°SSW
Pressure: 29.91"   Gusts: NA
Location:  41.61°N, 93.77°W
Report Text: KDSM 241854Z 20008KT 3SM BR OVC007 18/16 A2991 RMK AO2 SFC VIS 5 CIG 007V010 SLP128 T01780156
Loading
Personal Weather Stations






























Interactive Weather Map
Tropical Storm Tracking
New forecast layout! Learn more

10-Day Weather Forecast

Advertisements
Track Severe Weather on mobile